Weather reports worldwide

Advertisment
Siracusa, Italy (16464): temperature & dewpoint: 18.11.2020 04:00:00 - 24.11.2020 04:00:00 (CET)Siracusa, Italy (16464): wind speed: 18.11.2020 04:00:00 - 24.11.2020 04:00:00 (CET)Siracusa, Italy (16464): wind direction: 18.11.2020 04:00:00 - 24.11.2020 04:00:00 (CET)Siracusa, Italy (16464): reduced air pressure: 18.11.2020 04:00:00 - 24.11.2020 04:00:00 (CET)Siracusa, Italy (16464): precipitation: 18.11.2020 04:00:00 - 24.11.2020 04:00:00 (CET)
Date & Time tt [°C] td [°C] ff [km/h] ff [kn] dd ppp [hPa] rr [mm]
24.11.2020 04:00:00 - - - - - - -
24.11.2020 03:00:00 17,7 14,1 4 2 SW 1020,7 -
24.11.2020 02:00:00 17,3 13,9 5 3 SSW 1021,1 -
24.11.2020 01:00:00 17,3 13,7 5 3 SSW 1021,5 0,0
24.11.2020 00:00:00 17,5 14,5 8 4 SW 1022,2 -
23.11.2020 23:00:00 17,3 14,9 8 4 SSW 1022,3 -
23.11.2020 22:00:00 16,4 14,0 5 3 SW 1022,5 -
23.11.2020 21:00:00 16,5 13,1 8 4 WNW 1022,8 -
23.11.2020 20:00:00 17,1 13,3 13 7 W 1022,6 -
23.11.2020 19:00:00 17,9 14,1 9 5 W 1022,3 0,0
23.11.2020 18:00:00 18,6 14,4 9 5 WNW 1022,1 -
23.11.2020 17:00:00 18,7 13,7 2 1 WNW 1022,0 -
23.11.2020 16:00:00 19,1 13,6 5 3 W 1021,9 -
23.11.2020 15:00:00 19,2 13,9 8 4 W 1021,7 -
23.11.2020 14:00:00 19,8 14,7 9 5 W 1021,5 -
23.11.2020 13:00:00 18,9 14,7 8 4 W 1021,8 0,0
23.11.2020 12:00:00 19,9 15,7 11 6 W 1022,2 -
23.11.2020 11:00:00 18,0 15,6 4 2 W 1022,7 -
23.11.2020 10:00:00 17,3 14,9 2 1 SSW 1022,8 -
23.11.2020 09:00:00 17,0 14,4 4 2 W 1022,7 -
23.11.2020 08:00:00 18,1 14,1 5 3 W 1022,5 -
23.11.2020 07:00:00 18,0 14,2 8 4 W 1022,3 0,0
23.11.2020 06:00:00 18,2 14,2 8 4 W 1021,9 -
23.11.2020 05:00:00 18,1 14,1 11 6 W 1022,2 -
23.11.2020 04:00:00 14,3 11,6 4 2 WSW 1021,8 -
23.11.2020 03:00:00 14,9 12,2 4 2 W 1022,0 -
23.11.2020 02:00:00 14,9 11,8 5 3 SSW 1022,1 -
23.11.2020 01:00:00 15,4 11,4 0 0 N 1022,1 0,0
23.11.2020 00:00:00 18,5 14,5 9 5 WNW 1022,5 -
22.11.2020 23:00:00 17,9 13,7 5 3 W 1022,9 -
22.11.2020 22:00:00 17,9 12,5 5 3 W 1022,6 -
22.11.2020 21:00:00 17,1 13,5 8 4 W 1022,7 -
22.11.2020 20:00:00 17,5 13,7 15 8 W 1022,0 -
22.11.2020 19:00:00 17,9 14,1 15 8 W 1021,7 0,0
22.11.2020 18:00:00 17,6 13,0 11 6 W 1021,5 -
22.11.2020 17:00:00 17,2 12,8 9 5 W 1020,9 -
22.11.2020 16:00:00 17,2 13,2 13 7 W 1020,4 -
22.11.2020 15:00:00 17,6 13,8 15 8 W 1020,4 -
22.11.2020 14:00:00 17,7 12,8 13 7 W 1020,0 -
22.11.2020 13:00:00 17,9 12,9 16 9 W 1020,0 0,0
22.11.2020 12:00:00 18,2 13,4 16 9 W 1020,2 -
22.11.2020 11:00:00 18,1 13,3 15 8 W 1019,8 -
22.11.2020 10:00:00 17,0 13,3 18 10 W 1019,7 -
22.11.2020 09:00:00 16,8 13,1 16 9 WNW 1019,4 -
22.11.2020 08:00:00 16,0 12,9 9 5 SW 1019,1 -
22.11.2020 07:00:00 16,1 12,2 15 8 SSW 1018,4 0,0
22.11.2020 06:00:00 16,5 12,4 13 7 SSW 1017,6 -
22.11.2020 05:00:00 16,1 12,2 8 4 SSW 1016,8 -
22.11.2020 04:00:00 16,0 13,6 9 5 SSW 1016,3 -
22.11.2020 03:00:00 13,6 10,2 2 1 W 1016,4 -
22.11.2020 02:00:00 15,0 13,1 5 3 SSW 1016,2 -
22.11.2020 01:00:00 11,1 8,1 5 3 WSW 1016,3 0,0
22.11.2020 00:00:00 11,3 8,5 4 2 WSW 1016,4 -
21.11.2020 23:00:00 10,9 7,7 4 2 WNW 1016,3 -
21.11.2020 22:00:00 11,3 7,9 2 1 WSW 1015,9 -
21.11.2020 21:00:00 11,4 8,0 5 3 WNW 1015,6 -
21.11.2020 20:00:00 12,2 8,0 4 2 W 1015,5 -
21.11.2020 19:00:00 13,6 8,6 2 1 WNW 1015,2 0,0
21.11.2020 18:00:00 15,3 9,6 2 1 SW 1014,6 -
21.11.2020 17:00:00 16,0 9,8 9 5 SW 1014,0 -
21.11.2020 16:00:00 16,3 11,4 8 4 SW 1013,5 -
21.11.2020 15:00:00 15,6 10,9 18 10 SSW 1013,6 -
21.11.2020 14:00:00 17,5 10,3 16 9 SSW 1013,5 -
21.11.2020 13:00:00 18,3 9,3 11 6 SSW 1013,5 0,0
21.11.2020 12:00:00 17,8 8,8 13 7 SSW 1013,9 -
21.11.2020 11:00:00 16,7 9,1 4 2 SSW 1014,1 -
21.11.2020 10:00:00 14,2 8,8 4 2 SSW 1014,1 -
21.11.2020 09:00:00 12,6 7,0 2 1 W 1013,5 -
21.11.2020 08:00:00 12,5 6,5 2 1 SW 1013,2 -
21.11.2020 07:00:00 11,3 4,9 4 2 SSW 1012,6 0,0
21.11.2020 06:00:00 12,5 4,6 2 1 SSW 1012,1 -
21.11.2020 05:00:00 14,2 5,2 5 3 SW 1011,6 -
21.11.2020 04:00:00 14,5 6,3 9 5 SSW 1011,0 -
21.11.2020 03:00:00 13,7 5,8 2 1 SSW 1011,2 -
21.11.2020 02:00:00 15,1 6,6 9 5 SW 1011,4 -
21.11.2020 01:00:00 15,2 6,1 5 3 SSW 1011,6 0,0
21.11.2020 00:00:00 15,6 5,1 5 3 SSW 1011,7 -
20.11.2020 23:00:00 15,6 5,4 11 6 SSW 1011,5 -
20.11.2020 22:00:00 15,7 6,3 9 5 SSW 1011,5 -
20.11.2020 21:00:00 16,0 8,2 8 4 SSW 1011,3 -
20.11.2020 20:00:00 15,6 9,4 5 3 SSW 1011,2 -
20.11.2020 19:00:00 15,8 9,2 4 2 SSW 1011,1 0,0
20.11.2020 18:00:00 17,0 9,4 8 4 S 1011,2 -
20.11.2020 17:00:00 18,7 9,4 9 5 S 1011,3 -
20.11.2020 16:00:00 21,0 12,1 9 5 S 1011,1 -
20.11.2020 15:00:00 21,1 14,6 4 2 SSW 1011,4 -
20.11.2020 14:00:00 20,2 14,5 9 5 W 1011,6 -
20.11.2020 13:00:00 21,5 13,8 11 6 SSW 1012,4 0,0
20.11.2020 12:00:00 21,1 13,4 13 7 NW 1013,3 -
20.11.2020 11:00:00 20,9 13,0 8 4 W 1014,1 -
20.11.2020 10:00:00 19,2 13,5 0 0 N 1014,8 -
20.11.2020 09:00:00 12,9 9,5 0 0 N 1015,1 -
20.11.2020 08:00:00 9,7 6,6 0 0 N 1015,5 -
20.11.2020 07:00:00 9,1 5,8 8 4 S 1015,6 0,0
20.11.2020 06:00:00 9,5 6,4 4 2 SSW 1015,8 -
20.11.2020 05:00:00 9,9 6,8 4 2 SW 1016,1 -
20.11.2020 04:00:00 9,8 6,7 4 2 S 1016,7 -
20.11.2020 03:00:00 10,1 6,9 5 3 S 1017,5 -
20.11.2020 02:00:00 10,9 7,4 5 3 S 1018,1 -
20.11.2020 01:00:00 11,4 8,0 4 2 S 1018,7 0,0
20.11.2020 00:00:00 11,5 7,9 2 1 SSW 1019,3 -
19.11.2020 23:00:00 11,6 8,0 5 3 S 1019,9 -
19.11.2020 22:00:00 12,3 8,9 4 2 S 1020,3 -
19.11.2020 21:00:00 13,3 9,1 4 2 S 1020,6 -
19.11.2020 20:00:00 15,1 10,3 4 2 S 1020,7 -
19.11.2020 19:00:00 15,5 10,4 0 0 N 1020,8 0,0
19.11.2020 18:00:00 16,5 11,0 2 1 S 1021,0 -
19.11.2020 17:00:00 17,1 10,9 4 2 WNW 1021,1 -
19.11.2020 16:00:00 17,7 11,0 4 2 W 1021,3 -
19.11.2020 15:00:00 19,7 12,7 5 3 W 1021,5 -
19.11.2020 14:00:00 19,9 12,6 5 3 W 1022,1 -
19.11.2020 13:00:00 20,0 13,1 8 4 WNW 1022,8 0,0
19.11.2020 12:00:00 20,0 12,7 13 7 WNW 1023,4 -
19.11.2020 11:00:00 19,9 12,8 11 6 W 1023,9 -
19.11.2020 10:00:00 19,8 13,6 11 6 W 1024,2 -
19.11.2020 09:00:00 19,4 13,5 11 6 W 1024,2 -
19.11.2020 08:00:00 18,8 12,9 13 7 W 1023,9 -
19.11.2020 07:00:00 18,7 13,5 15 8 W 1023,7 0,0
19.11.2020 06:00:00 18,7 13,2 15 8 W 1023,7 -
19.11.2020 05:00:00 18,9 13,0 13 7 W 1023,9 -
19.11.2020 04:00:00 19,0 13,1 15 8 W 1023,8 -
19.11.2020 03:00:00 18,5 14,5 15 8 W 1024,0 -
19.11.2020 02:00:00 18,3 14,3 13 7 W 1024,4 -
19.11.2020 01:00:00 - - - - - - -
19.11.2020 00:00:00 18,6 15,4 11 6 W 1024,5 -
18.11.2020 23:00:00 19,0 15,8 15 8 W 1024,5 -
18.11.2020 22:00:00 19,2 15,4 13 7 W 1024,3 -
18.11.2020 21:00:00 19,3 15,7 11 6 W 1024,0 -
18.11.2020 20:00:00 19,4 15,4 5 3 W 1023,8 -
18.11.2020 19:00:00 19,4 15,4 9 5 W 1023,6 0,0
18.11.2020 18:00:00 19,7 15,5 9 5 W 1023,4 -
18.11.2020 17:00:00 19,6 15,2 9 5 W 1023,1 -
18.11.2020 16:00:00 20,0 15,4 9 5 W 1023,0 -
18.11.2020 15:00:00 20,4 15,3 9 5 W 1022,7 -
18.11.2020 14:00:00 20,5 15,4 9 5 W 1022,7 -
18.11.2020 13:00:00 20,3 16,1 9 5 WNW 1022,8 0,0
18.11.2020 12:00:00 20,4 16,0 13 7 W 1022,7 -
18.11.2020 11:00:00 20,0 15,1 11 6 SW 1023,0 -
18.11.2020 10:00:00 19,5 16,5 13 7 SW 1022,6 -
18.11.2020 09:00:00 17,8 16,6 8 4 W 1022,3 -
18.11.2020 08:00:00 14,4 12,9 4 2 WNW 1021,8 -
18.11.2020 07:00:00 13,1 11,1 4 2 W 1021,1 0,0
18.11.2020 06:00:00 13,5 11,7 4 2 W 1020,6 -
18.11.2020 05:00:00 14,1 12,5 4 2 WNW 1020,4 -
18.11.2020 04:00:00 15,0 13,6 4 2 WNW 1020,1 -

tt = temperature
td = dewpoint
ff = wind speed
dd = wind direction
ppp = reduced air pressure
rr = precipitation

Next stations